Portada
METAR-TAF:

METAR-TAF

Aeroports :

Nassau, Bahames

latitud: 25-03N, longitud: 077-28W, altitud: 3 m

Observació

L'informe es va fer fa 41 minuts, a les 17:00 UTC
Vent 6 kt del Nord
Temperatura 25°C
Humitat 50%
Pressió 1017 hPa
Visibilitat 10 km o més
Escasses núvols a una alçada de 5000 ft

METAR: MYNN 031700Z 01006KT 9999 FEW050 25/14 A3002

Hora: 13:41 (17:41 UTC)

Pronòstic

L'informe es va fer fa 8 hores i 11 minuts, a les 09:30 UTC
Pronòstic vàlid del 03 a les 12 UTC al 04 a les 12 UTC
Vent 8 kt del Est/Nord-Est
Visibilitat 10 km o més
Núvols disperses a una alçada de 2500 ft

TAF: MYNN 030930Z 0312/0412 06008KT 9999 SCT025

Observacions i pronòstics meteorològics de més de 4000 aeroports (METAR i TAF).

Les estacions disponibles són els punts grocs i vermells al mapa.

Posi el ratolí al punt desitjat per veure el nom de l'estació.

Feu clic per veure les observacions i els pronòstics meteorològics.

Per canviar el mapa: feu clic els botons verds amb una creu de color negre per apropar; al botó verd amb un guió per allunyar la imatge; o en les fletxes verdes per a mapes adjacents.


METAR-TAF: